Crawford, GA (30630)

01:52 PM EST am 27. Januar 2015 (GMT -0500)
APRSWXNET Lexington GA US | Change Station
CLOSE
Current Station
Persönliche Wetterstationen
Location: Lexington, GA
Höhe: 728 ft
Wetterstationen in der Umgebung

Höhe 728 ft 33.87 °N, 83.11 °W | Updated 44 minutes ago

Teils Wolkig
Teils Wolkig
51 °F
gefühlte 51 °F
N
1
Wind Wechselnd Wind aus West-Südwest
Gusts 8.0 mph

Heute
Max. -- | schwach -- °F
--% Regenrisiko
Gestern
Max. -- | schwach -- °F
Precip. -- inch
7:32 AM 5:58 PM
Erstes Viertel, 56% visible
Druck 29.91 inch
Sichtweite 10.0 Meilen
Wolken Heiter
Taupunkt 32 °F
Feuchtigkeit 48%
Regen 0.00 inch
Schneehöhe Nicht verfügbar..
UV 5 von 12
Pollen 1.80 von 12
Luftqualität Nicht verfügbar..
Flu Activity Nicht verfügbar..
METAR KAHN 271751Z 30016G22KT 10SM CLR 10/M03 A2989 RMK AO2 SLP126 T01001033 10100 20000 50001

More Conditions Fewer Conditions

Druck 29.91 inch
Sichtweite 10.0 Meilen
Wolken Heiter
Taupunkt 32 °F
Feuchtigkeit 48%
Regen 0.00 inch
Schneehöhe Nicht verfügbar..
UV 5 von 12
Pollen 1.80 von 12
Luftqualität Nicht verfügbar..
Flu Activity Nicht verfügbar..
METAR KAHN 271751Z 30016G22KT 10SM CLR 10/M03 A2989 RMK AO2 SLP126 T01001033 10100 20000 50001

More Conditions Fewer Conditions

10-Day Weather Forecast

Almanac

Astronomie

Jan. 27, 2015 Aufgang Untergang
Genaue Zeit
Bürgerliche Dämmerung
Nautische Dämmerung
Astronomische Dämmerung
Mond
Länge des sichtbaren Lichts
Tageslänge
Tomorrow will be .
, % of the Moon is Illuminated

Heutige Rekorde

State Highs State Lows

Community

WunderPhotos

Upload Photos

1,790,776 Fotos hochgeladen!

WunderBlogs® & News

Nearby

Luftqualität

  Luftqualität LQ Index Schadstoff
Not available.

Schneehöhe

Station Depth Höhe

Erdbebenaktivität

Stadt Distance Mag. Time & Date
Minimum magnitude displayed is 2.5.

küstennahe Wassertemperaturen

Ort Temperatur

Wetterstationen in der Umgebung